createdAt,value
2022-07-25T00:00:06.905Z,35.71
2022-07-25T00:01:36.007Z,35.61
2022-07-25T00:02:45.413Z,35.51
2022-07-25T00:03:53.893Z,35.32
2022-07-25T00:05:08.442Z,35.36
2022-07-25T00:06:17.777Z,35.40
2022-07-25T00:07:28.699Z,35.39
2022-07-25T00:08:37.766Z,35.48
2022-07-25T00:09:47.133Z,35.64
2022-07-25T00:10:55.679Z,35.69
2022-07-25T00:12:05.922Z,35.56
2022-07-25T00:13:15.188Z,35.52
2022-07-25T00:14:24.176Z,35.54
2022-07-25T00:15:32.499Z,35.51
2022-07-25T00:16:41.864Z,35.53
2022-07-25T00:17:50.780Z,35.42
2022-07-25T00:18:58.736Z,35.35
2022-07-25T00:20:07.779Z,35.35
2022-07-25T00:21:17.107Z,35.23
2022-07-25T00:22:25.403Z,35.22
2022-07-25T00:23:35.367Z,35.15
2022-07-25T00:24:44.511Z,35.10
2022-07-25T00:25:52.547Z,35.21
2022-07-25T00:27:01.023Z,35.18
2022-07-25T00:28:11.166Z,35.06
2022-07-25T00:29:20.570Z,35.06
2022-07-25T00:30:29.060Z,34.68
2022-07-25T00:31:38.358Z,34.68
2022-07-25T00:32:48.085Z,34.65
2022-07-25T00:33:57.901Z,34.54
2022-07-25T00:35:08.016Z,34.62
2022-07-25T00:36:15.826Z,34.80
2022-07-25T00:37:25.739Z,34.94
2022-07-25T00:38:34.012Z,34.96
2022-07-25T00:39:45.247Z,34.79
2022-07-25T00:40:55.360Z,34.77
2022-07-25T00:42:05.436Z,34.86
2022-07-25T00:43:15.478Z,34.79
2022-07-25T00:44:31.845Z,34.80
2022-07-25T00:45:41.644Z,34.82
2022-07-25T00:46:50.438Z,35.00
2022-07-25T00:48:02.120Z,35.09
2022-07-25T00:49:12.338Z,35.00
2022-07-25T00:50:20.815Z,34.88
2022-07-25T00:51:31.334Z,34.76
2022-07-25T00:52:40.857Z,34.83
2022-07-25T00:53:48.855Z,34.82
2022-07-25T00:54:58.566Z,34.90
2022-07-25T00:56:09.513Z,34.66
2022-07-25T00:57:18.469Z,34.41
2022-07-25T00:58:27.490Z,34.33
2022-07-25T00:59:36.830Z,34.05
2022-07-25T01:00:46.900Z,33.97
2022-07-25T01:01:56.106Z,34.04
2022-07-25T01:03:04.100Z,33.99
2022-07-25T01:04:15.032Z,33.82
2022-07-25T01:05:25.363Z,33.90
2022-07-25T01:06:34.452Z,33.65
2022-07-25T01:07:43.756Z,33.46
2022-07-25T01:08:51.830Z,33.40
2022-07-25T01:10:01.847Z,33.27
2022-07-25T01:11:12.963Z,33.24
2022-07-25T01:12:21.435Z,33.11
2022-07-25T01:13:35.556Z,33.26
2022-07-25T01:14:45.205Z,33.30
2022-07-25T01:15:54.772Z,33.22
2022-07-25T01:17:03.058Z,33.01
2022-07-25T01:18:12.838Z,32.98
2022-07-25T01:19:23.392Z,33.12
2022-07-25T01:20:32.430Z,32.87
2022-07-25T01:21:45.005Z,32.84
2022-07-25T01:22:53.613Z,32.83
2022-07-25T01:24:03.623Z,32.64
2022-07-25T01:25:12.666Z,32.65
2022-07-25T01:26:20.626Z,32.80
2022-07-25T01:27:31.683Z,32.95
2022-07-25T01:28:42.137Z,32.86
2022-07-25T01:29:50.166Z,32.74
2022-07-25T01:30:58.539Z,32.73
2022-07-25T01:32:10.014Z,32.66
2022-07-25T01:33:21.942Z,32.56
2022-07-25T01:34:30.750Z,32.36
2022-07-25T01:35:43.541Z,31.90
2022-07-25T01:36:52.354Z,31.75
2022-07-25T01:38:00.310Z,31.62
2022-07-25T01:39:11.392Z,31.56
2022-07-25T01:40:19.158Z,31.56
2022-07-25T01:41:27.820Z,31.55
2022-07-25T01:42:38.603Z,31.51
2022-07-25T01:43:48.460Z,31.48
2022-07-25T01:44:56.526Z,31.48
2022-07-25T01:46:05.826Z,31.48
2022-07-25T01:47:15.832Z,31.48
2022-07-25T01:48:25.042Z,31.50
2022-07-25T01:49:35.143Z,31.46
2022-07-25T01:50:45.693Z,31.35
2022-07-25T01:51:55.321Z,31.26
2022-07-25T01:53:03.940Z,31.15
2022-07-25T01:54:13.021Z,31.14
2022-07-25T01:55:21.043Z,30.97
2022-07-25T01:56:28.867Z,31.03
2022-07-25T01:57:49.902Z,31.01
2022-07-25T01:59:00.276Z,30.98
2022-07-25T02:00:09.045Z,30.89
2022-07-25T02:01:22.133Z,30.83
2022-07-25T02:02:31.376Z,30.79
2022-07-25T02:03:42.324Z,30.72
2022-07-25T02:04:51.846Z,30.74
2022-07-25T02:06:01.329Z,30.80
2022-07-25T02:07:10.452Z,30.65
2022-07-25T02:08:18.169Z,30.48
2022-07-25T02:09:28.812Z,30.31
2022-07-25T02:10:37.605Z,30.13
2022-07-25T02:11:45.857Z,29.94
2022-07-25T02:12:54.012Z,29.76
2022-07-25T02:14:04.385Z,29.62
2022-07-25T02:15:13.240Z,29.51
2022-07-25T02:16:28.886Z,29.49
2022-07-25T02:17:40.819Z,29.49
2022-07-25T02:18:48.668Z,29.32
2022-07-25T02:19:58.372Z,29.00
2022-07-25T02:21:14.439Z,28.69
2022-07-25T02:22:22.891Z,28.52
2022-07-25T02:23:35.925Z,28.37
2022-07-25T02:24:45.528Z,28.18
2022-07-25T02:25:55.385Z,28.09
2022-07-25T02:27:03.957Z,27.91
2022-07-25T02:28:15.929Z,27.81
2022-07-25T02:29:26.024Z,27.68
2022-07-25T02:30:34.405Z,27.56
2022-07-25T02:31:42.409Z,27.53
2022-07-25T02:32:52.533Z,27.48
2022-07-25T02:34:02.906Z,27.36
2022-07-25T02:35:14.859Z,27.28
2022-07-25T02:36:23.428Z,27.21
2022-07-25T02:37:34.686Z,27.18
2022-07-25T02:38:44.232Z,27.08
2022-07-25T02:39:52.806Z,26.97
2022-07-25T02:41:02.053Z,26.84
2022-07-25T02:42:12.761Z,26.67
2022-07-25T02:43:21.494Z,26.47
2022-07-25T02:44:30.471Z,26.23
2022-07-25T02:45:42.514Z,26.06
2022-07-25T02:46:53.548Z,25.96
2022-07-25T02:48:01.758Z,25.80
2022-07-25T02:49:09.923Z,25.69
2022-07-25T02:50:17.838Z,25.54
2022-07-25T02:51:26.247Z,25.46
2022-07-25T02:52:34.348Z,25.40
2022-07-25T02:53:57.064Z,25.26
2022-07-25T02:55:09.747Z,25.15
2022-07-25T02:56:18.411Z,25.04
2022-07-25T02:57:32.527Z,24.96
2022-07-25T02:58:40.555Z,24.86
2022-07-25T02:59:50.489Z,24.80
2022-07-25T03:00:59.266Z,24.72
2022-07-25T03:02:08.738Z,24.65
2022-07-25T03:03:18.249Z,24.60
2022-07-25T03:04:26.823Z,24.55
2022-07-25T03:05:36.320Z,24.52
2022-07-25T03:06:46.735Z,24.47
2022-07-25T03:07:54.561Z,24.41
2022-07-25T03:09:02.664Z,24.34
2022-07-25T03:10:14.413Z,24.27
2022-07-25T03:11:24.368Z,24.19
2022-07-25T03:12:34.454Z,24.12
2022-07-25T03:13:45.342Z,24.06
2022-07-25T03:14:53.758Z,24.00
2022-07-25T03:16:03.239Z,23.95
2022-07-25T03:17:12.173Z,23.91
2022-07-25T03:18:20.351Z,23.87
2022-07-25T03:19:29.067Z,23.82
2022-07-25T03:20:38.697Z,23.78
2022-07-25T03:21:48.858Z,23.72
2022-07-25T03:22:56.940Z,23.68
2022-07-25T03:24:08.496Z,23.63
2022-07-25T03:25:21.769Z,23.61
2022-07-25T03:26:32.938Z,23.57
2022-07-25T03:27:42.205Z,23.56
2022-07-25T03:28:50.903Z,23.52
2022-07-25T03:29:59.935Z,23.47
2022-07-25T03:31:09.730Z,23.44
2022-07-25T03:32:17.429Z,23.40
2022-07-25T03:33:26.761Z,23.35
2022-07-25T03:34:39.262Z,23.31
2022-07-25T03:35:50.727Z,23.25
2022-07-25T03:36:58.374Z,23.19
2022-07-25T03:38:08.607Z,23.15
2022-07-25T03:39:18.708Z,23.12
2022-07-25T03:40:26.786Z,23.08
2022-07-25T03:41:35.820Z,23.03
2022-07-25T03:42:46.951Z,23.01
2022-07-25T03:43:56.797Z,22.95
2022-07-25T03:45:05.423Z,22.88
2022-07-25T03:46:15.768Z,22.85
2022-07-25T03:47:26.033Z,22.82
2022-07-25T03:48:34.095Z,22.78
2022-07-25T03:49:45.311Z,22.75
2022-07-25T03:50:53.925Z,22.73
2022-07-25T03:52:02.947Z,22.71
2022-07-25T03:53:11.600Z,22.68
2022-07-25T03:54:19.737Z,22.64
2022-07-25T03:55:28.192Z,22.65
2022-07-25T03:56:43.920Z,22.63
2022-07-25T03:57:55.008Z,22.59
2022-07-25T03:59:02.803Z,22.58
2022-07-25T04:00:12.416Z,22.56
2022-07-25T04:01:22.959Z,22.51
2022-07-25T04:02:33.362Z,22.47
2022-07-25T04:03:42.017Z,22.43
2022-07-25T04:04:54.364Z,22.38
2022-07-25T04:06:08.300Z,22.33
2022-07-25T04:07:16.933Z,22.30
2022-07-25T04:08:25.272Z,22.25
2022-07-25T04:09:35.796Z,22.23
2022-07-25T04:10:45.661Z,22.19
2022-07-25T04:11:56.736Z,22.15
2022-07-25T04:13:05.445Z,22.10
2022-07-25T04:14:15.834Z,22.08
2022-07-25T04:15:23.832Z,22.04
2022-07-25T04:16:32.257Z,22.00
2022-07-25T04:17:46.335Z,21.97
2022-07-25T04:18:55.358Z,21.92
2022-07-25T04:20:07.720Z,21.87
2022-07-25T04:21:18.454Z,21.84
2022-07-25T04:22:26.678Z,21.84
2022-07-25T04:23:36.036Z,21.83
2022-07-25T04:24:46.478Z,21.79
2022-07-25T04:25:56.243Z,21.77
2022-07-25T04:27:04.938Z,21.72
2022-07-25T04:28:13.480Z,21.68
2022-07-25T04:29:21.559Z,21.65
2022-07-25T04:30:30.102Z,21.63
2022-07-25T04:31:38.581Z,21.61
2022-07-25T04:32:48.431Z,21.55
2022-07-25T04:33:57.198Z,21.51
2022-07-25T04:35:05.187Z,21.47
2022-07-25T04:36:16.119Z,21.45
2022-07-25T04:37:25.277Z,21.42
2022-07-25T04:38:33.405Z,21.42
2022-07-25T04:39:44.237Z,21.40
2022-07-25T04:40:52.879Z,21.37
2022-07-25T04:42:01.275Z,21.33
2022-07-25T04:43:10.202Z,21.32
2022-07-25T04:44:19.195Z,21.29
2022-07-25T04:45:28.765Z,21.26
2022-07-25T04:46:37.718Z,21.24
2022-07-25T04:47:46.573Z,21.22
2022-07-25T04:48:56.169Z,21.21
2022-07-25T04:50:05.966Z,21.17
2022-07-25T04:51:14.134Z,21.15
2022-07-25T04:52:21.954Z,21.14
2022-07-25T04:53:32.275Z,21.12
2022-07-25T04:54:42.814Z,21.11
2022-07-25T04:55:52.088Z,21.09
2022-07-25T04:57:00.552Z,21.06
2022-07-25T04:58:12.341Z,21.03
2022-07-25T04:59:23.143Z,21.02
2022-07-25T05:00:31.815Z,21.00
2022-07-25T05:01:46.724Z,20.99
2022-07-25T05:02:56.271Z,20.95
2022-07-25T05:04:06.680Z,20.93
2022-07-25T05:05:21.751Z,20.87
2022-07-25T05:06:32.183Z,20.85
2022-07-25T05:07:40.441Z,20.83
2022-07-25T05:08:49.305Z,20.79
2022-07-25T05:09:59.989Z,20.77
2022-07-25T05:11:09.192Z,20.76
2022-07-25T05:12:18.209Z,20.73
2022-07-25T05:13:26.718Z,20.71
2022-07-25T05:14:36.891Z,20.67
2022-07-25T05:15:48.052Z,20.65
2022-07-25T05:16:56.761Z,20.60
2022-07-25T05:18:06.493Z,20.62
2022-07-25T05:19:16.736Z,20.60
2022-07-25T05:20:25.054Z,20.58
2022-07-25T05:21:35.405Z,20.56
2022-07-25T05:22:46.141Z,20.54
2022-07-25T05:23:56.396Z,20.54
2022-07-25T05:25:06.943Z,20.51
2022-07-25T05:26:15.025Z,20.50
2022-07-25T05:27:24.964Z,20.48
2022-07-25T05:28:33.396Z,20.46
2022-07-25T05:29:44.141Z,20.46
2022-07-25T05:30:55.290Z,20.45
2022-07-25T05:32:03.751Z,20.42
2022-07-25T05:33:12.712Z,20.40
2022-07-25T05:34:20.909Z,20.37
2022-07-25T05:35:28.711Z,20.34
2022-07-25T05:36:37.884Z,20.36
2022-07-25T05:37:47.123Z,20.33
2022-07-25T05:38:56.534Z,20.26
2022-07-25T05:40:06.492Z,20.25
2022-07-25T05:41:18.410Z,20.23
2022-07-25T05:42:26.395Z,20.25
2022-07-25T05:43:37.381Z,20.23
2022-07-25T05:44:47.162Z,20.21
2022-07-25T05:45:55.221Z,20.18
2022-07-25T05:47:03.407Z,20.15
2022-07-25T05:48:14.779Z,20.11
2022-07-25T05:49:26.189Z,20.04
2022-07-25T05:50:43.147Z,20.03
2022-07-25T05:51:54.428Z,20.00
2022-07-25T05:53:03.608Z,20.00
2022-07-25T05:54:12.248Z,19.98
2022-07-25T05:55:23.683Z,19.97
2022-07-25T05:56:32.063Z,19.94
2022-07-25T05:57:40.561Z,19.93
2022-07-25T05:58:49.619Z,19.89
2022-07-25T05:59:59.745Z,19.90
2022-07-25T06:01:09.506Z,19.87
2022-07-25T06:02:18.625Z,19.86
2022-07-25T06:03:27.909Z,19.84
2022-07-25T06:04:36.887Z,19.85
2022-07-25T06:05:49.440Z,19.82
2022-07-25T06:06:57.616Z,19.83
2022-07-25T06:08:05.521Z,19.83
2022-07-25T06:09:17.505Z,19.80
2022-07-25T06:10:26.485Z,19.78
2022-07-25T06:11:36.844Z,19.74
2022-07-25T06:13:00.561Z,19.70
2022-07-25T06:14:09.514Z,19.68
2022-07-25T06:15:22.775Z,19.69
2022-07-25T06:16:36.501Z,19.65
2022-07-25T06:17:47.078Z,19.63
2022-07-25T06:18:56.931Z,19.62
2022-07-25T06:20:06.300Z,19.63
2022-07-25T06:21:16.246Z,19.61
2022-07-25T06:22:25.079Z,19.60
2022-07-25T06:23:36.083Z,19.60
2022-07-25T06:24:46.219Z,19.59
2022-07-25T06:25:56.776Z,19.61
2022-07-25T06:27:05.788Z,19.61
2022-07-25T06:28:18.269Z,19.60
2022-07-25T06:29:26.513Z,19.60
2022-07-25T06:30:36.992Z,19.58
2022-07-25T06:31:47.559Z,19.58
2022-07-25T06:32:57.404Z,19.57
2022-07-25T06:34:08.369Z,19.57
2022-07-25T06:35:20.242Z,19.56
2022-07-25T06:36:32.516Z,19.54
2022-07-25T06:37:49.491Z,19.52
2022-07-25T06:38:58.393Z,19.50
2022-07-25T06:40:07.525Z,19.48
2022-07-25T06:41:19.723Z,19.49
2022-07-25T06:42:27.552Z,19.47
2022-07-25T06:43:37.027Z,19.47
2022-07-25T06:44:45.715Z,19.47
2022-07-25T06:45:54.937Z,19.49
2022-07-25T06:47:04.200Z,19.51
2022-07-25T06:48:15.322Z,19.49
2022-07-25T06:49:26.371Z,19.47
2022-07-25T06:50:35.370Z,19.46
2022-07-25T06:51:49.118Z,19.48
2022-07-25T06:52:57.603Z,19.45
2022-07-25T06:54:06.997Z,19.44
2022-07-25T06:55:18.182Z,19.45
2022-07-25T06:56:26.251Z,19.47
2022-07-25T06:57:37.859Z,19.47
2022-07-25T06:58:47.482Z,19.46
2022-07-25T06:59:57.231Z,19.45
2022-07-25T07:01:05.593Z,19.46
2022-07-25T07:02:17.485Z,19.45
2022-07-25T07:03:25.583Z,19.44
2022-07-25T07:04:34.266Z,19.43
2022-07-25T07:05:45.034Z,19.42
2022-07-25T07:06:59.742Z,19.43
2022-07-25T07:08:07.919Z,19.44
2022-07-25T07:09:15.780Z,19.44
2022-07-25T07:10:24.128Z,19.42
2022-07-25T07:11:35.894Z,19.42
2022-07-25T07:12:47.994Z,19.41
2022-07-25T07:13:58.420Z,19.40
2022-07-25T07:15:07.752Z,19.37
2022-07-25T07:16:17.369Z,19.36
2022-07-25T07:17:26.731Z,19.33
2022-07-25T07:18:35.199Z,19.31
2022-07-25T07:19:47.588Z,19.30
2022-07-25T07:20:56.656Z,19.28
2022-07-25T07:22:04.711Z,19.26
2022-07-25T07:23:16.662Z,19.23
2022-07-25T07:24:26.413Z,19.23
2022-07-25T07:25:36.136Z,19.22
2022-07-25T07:26:46.689Z,19.22
2022-07-25T07:27:57.343Z,19.20
2022-07-25T07:29:06.466Z,19.20
2022-07-25T07:30:24.062Z,19.19
2022-07-25T07:31:38.010Z,19.17
2022-07-25T07:32:47.925Z,19.14
2022-07-25T07:33:57.572Z,19.13
2022-07-25T07:35:06.999Z,19.11
2022-07-25T07:36:17.201Z,19.08
2022-07-25T07:37:25.962Z,19.09
2022-07-25T07:38:34.185Z,19.09
2022-07-25T07:39:44.774Z,19.08
2022-07-25T07:40:55.185Z,19.07
2022-07-25T07:42:03.379Z,19.08
2022-07-25T07:43:12.721Z,19.08
2022-07-25T07:44:22.181Z,19.06
2022-07-25T07:45:33.134Z,19.06
2022-07-25T07:46:41.231Z,19.05
2022-07-25T07:47:50.512Z,19.06
2022-07-25T07:48:59.799Z,19.04
2022-07-25T07:50:10.596Z,19.02
2022-07-25T07:51:20.971Z,19.02
2022-07-25T07:52:28.902Z,19.02
2022-07-25T07:53:57.310Z,19.01
2022-07-25T07:55:25.334Z,18.99
2022-07-25T07:56:33.934Z,18.98
2022-07-25T07:57:45.095Z,18.97
2022-07-25T07:58:55.310Z,18.96
2022-07-25T08:00:07.058Z,18.95
2022-07-25T08:01:20.364Z,18.95
2022-07-25T08:02:28.529Z,18.96
2022-07-25T08:03:39.874Z,18.97
2022-07-25T08:04:50.145Z,18.96
2022-07-25T08:05:59.918Z,18.94
2022-07-25T08:07:07.545Z,18.92
2022-07-25T08:08:20.253Z,18.92
2022-07-25T08:09:30.052Z,18.91
2022-07-25T08:10:39.845Z,18.90
2022-07-25T08:11:50.172Z,18.90
2022-07-25T08:12:59.998Z,18.90
2022-07-25T08:14:11.023Z,18.90
2022-07-25T08:15:20.221Z,18.88
2022-07-25T08:16:28.825Z,18.88
2022-07-25T08:17:38.493Z,18.86
2022-07-25T08:18:47.608Z,18.85
2022-07-25T08:20:05.595Z,18.86
2022-07-25T08:21:26.706Z,18.86
2022-07-25T08:22:43.552Z,18.85
2022-07-25T08:23:56.373Z,18.83
2022-07-25T08:25:04.896Z,18.81
2022-07-25T08:26:13.263Z,18.81
2022-07-25T08:27:22.267Z,18.79
2022-07-25T08:28:31.246Z,18.80
2022-07-25T08:29:39.443Z,18.80
2022-07-25T08:30:49.850Z,18.78
2022-07-25T08:32:00.789Z,18.76
2022-07-25T08:33:12.735Z,18.76
2022-07-25T08:34:24.211Z,18.75
2022-07-25T08:35:34.377Z,18.73
2022-07-25T08:36:43.029Z,18.72
2022-07-25T08:37:51.351Z,18.72
2022-07-25T08:38:59.630Z,18.73
2022-07-25T08:40:10.279Z,18.71
2022-07-25T08:41:19.839Z,18.70
2022-07-25T08:42:35.366Z,18.68
2022-07-25T08:43:44.198Z,18.68
2022-07-25T08:45:06.377Z,18.67
2022-07-25T08:46:18.441Z,18.67
2022-07-25T08:47:27.580Z,18.64
2022-07-25T08:48:35.644Z,18.63
2022-07-25T08:49:46.475Z,18.62
2022-07-25T08:50:58.789Z,18.63
2022-07-25T08:52:07.171Z,18.61
2022-07-25T08:53:38.916Z,18.62
2022-07-25T08:54:49.473Z,18.61
2022-07-25T08:55:57.689Z,18.59
2022-07-25T08:57:05.842Z,18.57
2022-07-25T08:58:14.536Z,18.57
2022-07-25T08:59:24.853Z,18.56
2022-07-25T09:00:33.594Z,18.54
2022-07-25T09:01:43.015Z,18.55
2022-07-25T09:03:01.929Z,18.53
2022-07-25T09:04:13.270Z,18.51
2022-07-25T09:05:22.221Z,18.51
2022-07-25T09:06:30.003Z,18.51
2022-07-25T09:07:43.161Z,18.50
2022-07-25T09:09:01.772Z,18.49
2022-07-25T09:10:26.176Z,18.47
2022-07-25T09:11:38.840Z,18.45
2022-07-25T09:13:05.411Z,18.45
2022-07-25T09:14:16.395Z,18.45
2022-07-25T09:15:39.381Z,18.43
2022-07-25T09:16:49.812Z,18.42
2022-07-25T09:18:02.359Z,18.41
2022-07-25T09:19:12.748Z,18.40
2022-07-25T09:20:26.040Z,18.39
2022-07-25T09:21:37.020Z,18.38
2022-07-25T09:22:48.022Z,18.39
2022-07-25T09:23:57.656Z,18.39
2022-07-25T09:25:05.853Z,18.39
2022-07-25T09:26:16.243Z,18.39
2022-07-25T09:27:26.948Z,18.40
2022-07-25T09:28:35.186Z,18.41
2022-07-25T09:29:47.234Z,18.42
2022-07-25T09:31:03.694Z,18.39
2022-07-25T09:32:22.635Z,18.35
2022-07-25T09:33:30.947Z,18.34
2022-07-25T09:34:41.624Z,18.33
2022-07-25T09:35:53.486Z,18.34
2022-07-25T09:37:04.303Z,18.35
2022-07-25T09:38:16.224Z,18.34
2022-07-25T09:39:43.501Z,18.33
2022-07-25T09:41:03.228Z,18.31
2022-07-25T09:42:19.018Z,18.28
2022-07-25T09:43:47.930Z,18.26
2022-07-25T09:45:04.873Z,18.23
2022-07-25T09:46:14.176Z,18.20
2022-07-25T09:47:22.624Z,18.18
2022-07-25T09:48:30.811Z,18.17
2022-07-25T09:49:46.875Z,18.17
2022-07-25T09:50:57.566Z,18.15
2022-07-25T09:52:05.766Z,18.14
2022-07-25T09:53:13.857Z,18.13
2022-07-25T09:54:27.735Z,18.11
2022-07-25T09:55:37.340Z,18.12
2022-07-25T09:56:47.499Z,18.10
2022-07-25T09:57:57.455Z,18.08
2022-07-25T09:59:06.073Z,18.07
2022-07-25T10:00:19.513Z,18.07
2022-07-25T10:01:36.794Z,18.05
2022-07-25T10:02:51.970Z,18.03
2022-07-25T10:04:07.842Z,18.05
2022-07-25T10:05:22.016Z,18.05
2022-07-25T10:06:47.889Z,18.04
2022-07-25T10:07:58.584Z,18.02
2022-07-25T10:09:12.495Z,18.01
2022-07-25T10:10:45.485Z,18.01
2022-07-25T10:12:12.343Z,18.01
2022-07-25T10:13:33.342Z,18.00
2022-07-25T10:14:41.333Z,18.02
2022-07-25T10:15:54.346Z,18.02
2022-07-25T10:17:03.570Z,18.02
2022-07-25T10:18:20.587Z,18.02
2022-07-25T10:19:51.821Z,18.00
2022-07-25T10:21:25.763Z,18.01
2022-07-25T10:22:58.549Z,18.00
2022-07-25T10:24:10.995Z,18.00
2022-07-25T10:25:21.762Z,17.98
2022-07-25T10:26:29.633Z,17.99
2022-07-25T10:27:54.530Z,18.00
2022-07-25T10:29:08.907Z,17.98
2022-07-25T10:30:25.133Z,17.96
2022-07-25T10:31:39.961Z,17.97
2022-07-25T10:33:23.073Z,17.97
2022-07-25T10:34:33.055Z,17.96
2022-07-25T10:35:43.951Z,17.94
2022-07-25T10:36:53.766Z,17.95
2022-07-25T10:38:05.709Z,17.95
2022-07-25T10:39:15.233Z,17.94
2022-07-25T10:40:45.556Z,17.92
2022-07-25T10:41:57.545Z,17.92
2022-07-25T10:43:23.381Z,17.92
2022-07-25T10:44:41.597Z,17.93
2022-07-25T10:45:59.352Z,17.91
2022-07-25T10:47:16.012Z,17.91
2022-07-25T10:48:34.241Z,17.92
2022-07-25T10:51:20.898Z,17.91
2022-07-25T10:52:31.744Z,17.90
2022-07-25T10:53:48.845Z,17.91
2022-07-25T10:55:00.626Z,17.91
2022-07-25T10:56:19.464Z,17.91
2022-07-25T10:57:31.753Z,17.91
2022-07-25T10:58:51.479Z,17.91
2022-07-25T11:00:09.484Z,17.91
2022-07-25T11:01:28.903Z,17.91
2022-07-25T11:02:38.111Z,17.90
2022-07-25T11:03:51.542Z,17.89
2022-07-25T11:05:04.377Z,17.90
2022-07-25T11:06:16.803Z,17.89
2022-07-25T11:07:30.352Z,17.89
2022-07-25T11:08:38.891Z,17.89
2022-07-25T11:09:47.079Z,17.89
2022-07-25T11:10:57.488Z,17.94
2022-07-25T11:12:06.661Z,17.94
2022-07-25T11:13:17.403Z,17.91
2022-07-25T11:14:34.565Z,17.89
2022-07-25T11:15:43.085Z,17.86
2022-07-25T11:16:52.653Z,17.85
2022-07-25T11:18:04.279Z,17.84
2022-07-25T11:19:31.665Z,17.85
2022-07-25T11:20:39.923Z,17.83
2022-07-25T11:21:56.404Z,17.83
2022-07-25T11:23:05.058Z,17.84
2022-07-25T11:24:15.496Z,17.83
2022-07-25T11:25:24.756Z,17.82
2022-07-25T11:26:33.514Z,17.81
2022-07-25T11:27:41.973Z,17.82
2022-07-25T11:28:52.871Z,17.81
2022-07-25T11:30:18.419Z,17.83
2022-07-25T11:31:29.207Z,17.82
2022-07-25T11:32:55.593Z,17.79
2022-07-25T11:34:05.926Z,17.80
2022-07-25T11:35:14.662Z,17.79
2022-07-25T11:36:25.377Z,17.80
2022-07-25T11:37:38.290Z,17.82
2022-07-25T11:38:51.023Z,17.83
2022-07-25T11:40:00.930Z,17.82
2022-07-25T11:41:09.289Z,17.81
2022-07-25T11:42:18.875Z,17.80
2022-07-25T11:43:28.878Z,17.80
2022-07-25T11:44:45.638Z,17.79
2022-07-25T11:46:01.670Z,17.82
2022-07-25T11:47:27.053Z,17.82
2022-07-25T11:48:44.609Z,17.82
2022-07-25T11:49:54.385Z,17.83
2022-07-25T11:51:18.572Z,17.82
2022-07-25T11:52:39.693Z,17.84
2022-07-25T11:53:51.421Z,17.83
2022-07-25T11:55:06.850Z,17.82
2022-07-25T11:56:42.634Z,17.78
2022-07-25T11:57:48.253Z,17.76
2022-07-25T11:59:02.931Z,17.74
2022-07-25T12:00:28.570Z,17.71
2022-07-25T12:01:43.955Z,17.69
2022-07-25T12:02:55.139Z,17.67
2022-07-25T12:04:22.989Z,17.66
2022-07-25T12:05:36.254Z,17.64
2022-07-25T12:06:47.243Z,17.64
2022-07-25T12:07:58.427Z,17.65
2022-07-25T12:09:21.739Z,17.65
2022-07-25T12:10:37.243Z,17.65
2022-07-25T12:11:48.798Z,17.66
2022-07-25T12:13:03.467Z,17.65
2022-07-25T12:14:11.956Z,17.64
2022-07-25T12:15:23.048Z,17.63
2022-07-25T12:16:31.411Z,17.65
2022-07-25T12:17:40.099Z,17.66
2022-07-25T12:18:48.658Z,17.65
2022-07-25T12:19:59.213Z,17.65
2022-07-25T12:21:07.385Z,17.65
2022-07-25T12:22:18.811Z,17.67
2022-07-25T12:23:28.689Z,17.66
2022-07-25T12:24:36.962Z,17.66
2022-07-25T12:25:48.244Z,17.66
2022-07-25T12:26:58.655Z,17.65
2022-07-25T12:28:09.725Z,17.66
2022-07-25T12:29:17.629Z,17.67
2022-07-25T12:30:31.339Z,17.66
2022-07-25T12:31:41.757Z,17.67
2022-07-25T12:32:50.171Z,17.67
2022-07-25T12:33:59.935Z,17.69
2022-07-25T12:35:08.508Z,17.69
2022-07-25T12:36:18.808Z,17.70
2022-07-25T12:37:30.703Z,17.68
2022-07-25T12:38:39.737Z,17.66
2022-07-25T12:39:49.272Z,17.66
2022-07-25T12:40:57.560Z,17.66
2022-07-25T12:42:08.385Z,17.66
2022-07-25T12:43:17.085Z,17.66
2022-07-25T12:44:28.318Z,17.69
2022-07-25T12:45:36.121Z,17.71
2022-07-25T12:46:49.309Z,17.73
2022-07-25T12:47:59.114Z,17.74
2022-07-25T12:49:07.344Z,17.74
2022-07-25T12:50:18.120Z,17.74
2022-07-25T12:51:26.003Z,17.77
2022-07-25T12:52:34.064Z,17.76
2022-07-25T12:53:44.188Z,17.76
2022-07-25T12:54:52.926Z,17.76
2022-07-25T12:56:03.054Z,17.76
2022-07-25T12:57:12.007Z,17.78
2022-07-25T12:58:21.045Z,17.80
2022-07-25T12:59:30.563Z,17.81
2022-07-25T13:00:41.943Z,17.83
2022-07-25T13:01:51.860Z,17.83
2022-07-25T13:03:00.796Z,17.81
2022-07-25T13:04:14.052Z,17.80
2022-07-25T13:05:22.371Z,17.80
2022-07-25T13:06:31.831Z,17.81
2022-07-25T13:07:42.835Z,17.83
2022-07-25T13:08:54.350Z,17.84
2022-07-25T13:10:07.433Z,17.86
2022-07-25T13:11:16.077Z,17.86
2022-07-25T13:12:25.976Z,17.86
2022-07-25T13:13:36.069Z,17.86
2022-07-25T13:14:44.390Z,17.86
2022-07-25T13:15:56.449Z,17.87
2022-07-25T13:17:06.935Z,17.89
2022-07-25T13:18:16.839Z,17.92
2022-07-25T13:19:28.408Z,17.94
2022-07-25T13:20:38.824Z,17.96
2022-07-25T13:21:48.860Z,17.97
2022-07-25T13:22:58.393Z,17.97
2022-07-25T13:24:08.954Z,17.97
2022-07-25T13:25:17.111Z,18.00
2022-07-25T13:26:25.163Z,18.04
2022-07-25T13:27:33.276Z,18.06
2022-07-25T13:28:41.006Z,18.07
2022-07-25T13:29:56.633Z,18.10
2022-07-25T13:31:08.260Z,18.12
2022-07-25T13:32:16.758Z,18.11
2022-07-25T13:33:28.869Z,18.13
2022-07-25T13:34:37.174Z,18.14
2022-07-25T13:35:48.330Z,18.16
2022-07-25T13:36:59.089Z,18.19
2022-07-25T13:38:10.860Z,18.21
2022-07-25T13:39:19.529Z,18.24
2022-07-25T13:40:29.685Z,18.27
2022-07-25T13:41:38.624Z,18.30
2022-07-25T13:42:46.510Z,18.34
2022-07-25T13:44:00.025Z,18.37
2022-07-25T13:45:08.907Z,18.41
2022-07-25T13:46:20.446Z,18.44
2022-07-25T13:47:32.152Z,18.48
2022-07-25T13:48:40.587Z,18.50
2022-07-25T13:49:48.954Z,18.56
2022-07-25T13:50:58.542Z,18.62
2022-07-25T13:52:09.413Z,18.70
2022-07-25T13:53:18.692Z,18.76
2022-07-25T13:54:28.281Z,18.80
2022-07-25T13:55:36.551Z,18.81
2022-07-25T13:56:44.845Z,18.83
2022-07-25T13:57:55.741Z,18.89
2022-07-25T13:59:07.330Z,18.95
2022-07-25T14:00:15.708Z,19.03
2022-07-25T14:01:24.392Z,19.14
2022-07-25T14:02:32.473Z,19.20
2022-07-25T14:03:47.385Z,19.28
2022-07-25T14:04:57.932Z,19.34
2022-07-25T14:06:14.110Z,19.29
2022-07-25T14:07:22.483Z,19.24
2022-07-25T14:08:30.685Z,19.28
2022-07-25T14:09:41.309Z,19.28
2022-07-25T14:10:50.268Z,19.29
2022-07-25T14:11:59.590Z,19.34
2022-07-25T14:13:08.567Z,19.33
2022-07-25T14:14:19.606Z,19.34
2022-07-25T14:15:29.626Z,19.39
2022-07-25T14:16:37.752Z,19.45
2022-07-25T14:17:47.212Z,19.50
2022-07-25T14:18:58.171Z,19.51
2022-07-25T14:20:09.966Z,19.61
2022-07-25T14:21:17.973Z,19.78
2022-07-25T14:22:26.229Z,19.90
2022-07-25T14:23:34.355Z,20.13
2022-07-25T14:24:42.980Z,20.37
2022-07-25T14:25:51.575Z,20.57
2022-07-25T14:27:02.576Z,20.73
2022-07-25T14:28:12.187Z,20.86
2022-07-25T14:29:21.369Z,21.01
2022-07-25T14:30:31.641Z,21.26
2022-07-25T14:31:41.814Z,21.49
2022-07-25T14:32:51.129Z,21.57
2022-07-25T14:34:02.164Z,21.50
2022-07-25T14:35:10.984Z,21.44
2022-07-25T14:36:20.082Z,21.40
2022-07-25T14:37:28.817Z,21.44
2022-07-25T14:38:36.957Z,21.48
2022-07-25T14:39:47.145Z,21.53
2022-07-25T14:40:57.750Z,21.73
2022-07-25T14:42:06.874Z,22.00
2022-07-25T14:43:14.670Z,22.17
2022-07-25T14:44:25.350Z,22.21
2022-07-25T14:45:36.106Z,22.23
2022-07-25T14:46:47.145Z,22.38
2022-07-25T14:47:55.649Z,22.64
2022-07-25T14:49:06.154Z,22.96
2022-07-25T14:50:15.013Z,23.17
2022-07-25T14:51:23.849Z,23.34
2022-07-25T14:52:33.423Z,23.63
2022-07-25T14:53:42.472Z,23.92
2022-07-25T14:54:50.793Z,24.04
2022-07-25T14:56:00.746Z,23.95
2022-07-25T14:57:09.379Z,23.77
2022-07-25T14:58:18.273Z,23.60
2022-07-25T14:59:26.526Z,23.49
2022-07-25T15:00:35.281Z,23.54
2022-07-25T15:01:45.658Z,23.71
2022-07-25T15:02:58.509Z,23.78
2022-07-25T15:04:08.947Z,23.87
2022-07-25T15:05:17.374Z,24.08
2022-07-25T15:06:29.259Z,24.24
2022-07-25T15:07:38.572Z,24.41
2022-07-25T15:08:52.352Z,24.60
2022-07-25T15:10:02.286Z,24.78
2022-07-25T15:11:10.464Z,24.79
2022-07-25T15:12:21.621Z,24.92
2022-07-25T15:13:32.438Z,25.21
2022-07-25T15:14:40.810Z,25.37
2022-07-25T15:15:49.180Z,25.41